createdAt,value
2023-10-31T00:00:21.113Z,14.75
2023-10-31T00:01:23.318Z,17.20
2023-10-31T00:02:25.463Z,17.83
2023-10-31T00:03:27.701Z,13.73
2023-10-31T00:04:29.893Z,13.43
2023-10-31T00:05:32.149Z,14.57
2023-10-31T00:06:34.340Z,14.75
2023-10-31T00:07:36.562Z,13.75
2023-10-31T00:08:38.705Z,11.73
2023-10-31T00:09:41.500Z,13.82
2023-10-31T00:10:45.960Z,14.00
2023-10-31T00:11:48.195Z,14.60
2023-10-31T00:12:50.430Z,13.45
2023-10-31T00:13:52.641Z,14.90
2023-10-31T00:14:55.036Z,16.13
2023-10-31T00:15:57.397Z,16.48
2023-10-31T00:17:00.436Z,14.95
2023-10-31T00:18:02.782Z,15.45
2023-10-31T00:19:04.999Z,15.65
2023-10-31T00:20:07.762Z,15.18
2023-10-31T00:21:09.998Z,14.50
2023-10-31T00:22:12.128Z,15.20
2023-10-31T00:23:16.167Z,14.65
2023-10-31T00:24:18.361Z,15.52
2023-10-31T00:25:20.846Z,16.92
2023-10-31T00:26:23.078Z,14.60
2023-10-31T00:27:25.222Z,14.60
2023-10-31T00:28:27.367Z,13.25
2023-10-31T00:29:29.523Z,14.40
2023-10-31T00:30:31.710Z,15.50
2023-10-31T00:31:36.018Z,14.45
2023-10-31T00:32:38.271Z,15.05
2023-10-31T00:33:40.442Z,13.68
2023-10-31T00:34:42.681Z,15.90
2023-10-31T00:35:44.858Z,16.00
2023-10-31T00:36:47.010Z,14.68
2023-10-31T00:37:49.193Z,14.25
2023-10-31T00:38:51.409Z,16.20
2023-10-31T00:39:53.648Z,19.38
2023-10-31T00:40:55.838Z,17.13
2023-10-31T00:41:58.040Z,15.82
2023-10-31T00:43:01.743Z,15.00
2023-10-31T00:44:04.044Z,15.35
2023-10-31T00:45:06.553Z,13.52
2023-10-31T00:46:08.740Z,19.48
2023-10-31T00:47:11.019Z,17.10
2023-10-31T00:48:13.381Z,15.32
2023-10-31T00:49:15.569Z,15.98
2023-10-31T00:50:17.763Z,14.90
2023-10-31T00:51:19.991Z,13.35
2023-10-31T00:52:22.167Z,15.18
2023-10-31T00:53:24.331Z,16.23
2023-10-31T00:54:26.558Z,18.70
2023-10-31T00:55:28.677Z,15.57
2023-10-31T00:56:30.870Z,13.05
2023-10-31T00:57:33.114Z,17.30
2023-10-31T00:58:35.343Z,17.50
2023-10-31T00:59:37.585Z,16.10
2023-10-31T01:00:39.917Z,16.05
2023-10-31T01:01:43.932Z,14.38
2023-10-31T01:02:46.254Z,14.25
2023-10-31T01:03:48.409Z,14.35
2023-10-31T01:04:50.603Z,17.45
2023-10-31T01:05:52.878Z,14.95
2023-10-31T01:06:55.078Z,15.48
2023-10-31T01:07:57.276Z,17.58
2023-10-31T01:08:59.519Z,16.40
2023-10-31T01:10:02.047Z,14.55
2023-10-31T01:11:04.436Z,16.30
2023-10-31T01:12:07.051Z,17.52
2023-10-31T01:13:09.290Z,19.30
2023-10-31T01:14:11.505Z,13.73
2023-10-31T01:15:13.693Z,17.70
2023-10-31T01:16:15.947Z,16.13
2023-10-31T01:17:18.112Z,14.48
2023-10-31T01:18:20.271Z,15.60
2023-10-31T01:19:22.427Z,16.73
2023-10-31T01:20:24.743Z,15.50
2023-10-31T01:21:26.999Z,17.58
2023-10-31T01:22:29.210Z,15.85
2023-10-31T01:23:31.383Z,16.77
2023-10-31T01:24:33.520Z,17.10
2023-10-31T01:25:35.696Z,18.23
2023-10-31T01:26:37.836Z,17.10
2023-10-31T01:27:40.059Z,16.88
2023-10-31T01:28:42.193Z,17.13
2023-10-31T01:29:44.351Z,15.50
2023-10-31T01:30:46.545Z,19.42
2023-10-31T01:31:56.412Z,17.45
2023-10-31T01:33:03.178Z,16.08
2023-10-31T01:34:05.493Z,18.70
2023-10-31T01:35:08.067Z,17.27
2023-10-31T01:36:11.708Z,17.33
2023-10-31T01:37:15.151Z,16.02
2023-10-31T01:38:17.307Z,14.90
2023-10-31T01:39:19.602Z,17.88
2023-10-31T01:40:21.892Z,23.52
2023-10-31T01:41:24.066Z,15.23
2023-10-31T01:42:26.220Z,17.42
2023-10-31T01:43:33.052Z,16.92
2023-10-31T01:44:35.248Z,19.02
2023-10-31T01:45:37.493Z,21.30
2023-10-31T01:46:39.745Z,20.42
2023-10-31T01:47:41.937Z,19.35
2023-10-31T01:48:44.394Z,18.40
2023-10-31T01:49:46.647Z,16.77
2023-10-31T01:50:48.880Z,19.45
2023-10-31T01:51:51.505Z,16.35
2023-10-31T01:52:53.764Z,18.20
2023-10-31T01:53:56.741Z,18.05
2023-10-31T01:54:58.903Z,15.82
2023-10-31T01:56:03.080Z,16.27
2023-10-31T01:57:05.967Z,15.98
2023-10-31T01:58:08.216Z,20.20
2023-10-31T01:59:10.771Z,18.15
2023-10-31T02:00:14.066Z,15.90
2023-10-31T02:01:16.461Z,15.70
2023-10-31T02:02:19.244Z,17.90
2023-10-31T02:03:21.513Z,17.42
2023-10-31T02:04:23.712Z,15.32
2023-10-31T02:05:27.659Z,15.70
2023-10-31T02:06:31.462Z,19.20
2023-10-31T02:07:33.610Z,16.45
2023-10-31T02:08:35.979Z,18.50
2023-10-31T02:09:38.151Z,19.77
2023-10-31T02:10:40.313Z,16.50
2023-10-31T02:11:42.475Z,17.42
2023-10-31T02:12:44.656Z,17.83
2023-10-31T02:13:46.815Z,16.67
2023-10-31T02:14:48.975Z,17.02
2023-10-31T02:15:51.209Z,18.58
2023-10-31T02:16:53.429Z,15.93
2023-10-31T02:17:55.659Z,17.38
2023-10-31T02:18:57.810Z,16.88
2023-10-31T02:20:00.051Z,20.77
2023-10-31T02:21:02.272Z,18.13
2023-10-31T02:22:04.402Z,15.38
2023-10-31T02:23:06.778Z,13.73
2023-10-31T02:24:09.092Z,14.20
2023-10-31T02:25:18.523Z,19.00
2023-10-31T02:26:20.764Z,15.57
2023-10-31T02:27:22.929Z,15.20
2023-10-31T02:28:28.913Z,17.13
2023-10-31T02:29:31.199Z,17.52
2023-10-31T02:30:33.583Z,15.15
2023-10-31T02:31:35.830Z,14.45
2023-10-31T02:32:38.098Z,15.52
2023-10-31T02:33:40.288Z,18.20
2023-10-31T02:34:42.566Z,17.85
2023-10-31T02:35:44.810Z,17.73
2023-10-31T02:36:46.959Z,18.30
2023-10-31T02:37:49.188Z,16.27
2023-10-31T02:38:51.341Z,17.35
2023-10-31T02:39:53.493Z,21.25
2023-10-31T02:40:55.669Z,18.90
2023-10-31T02:41:59.088Z,17.90
2023-10-31T02:43:01.246Z,17.75
2023-10-31T02:44:03.523Z,18.40
2023-10-31T02:45:06.236Z,16.70
2023-10-31T02:46:08.506Z,16.67
2023-10-31T02:47:10.720Z,17.63
2023-10-31T02:48:12.889Z,21.48
2023-10-31T02:49:15.069Z,18.00
2023-10-31T02:50:17.235Z,15.75
2023-10-31T02:51:19.550Z,21.17
2023-10-31T02:52:21.686Z,19.33
2023-10-31T02:53:23.822Z,18.40
2023-10-31T02:54:25.983Z,17.25
2023-10-31T02:55:28.139Z,21.48
2023-10-31T02:56:30.567Z,17.65
2023-10-31T02:57:32.764Z,17.70
2023-10-31T02:58:34.897Z,18.42
2023-10-31T02:59:37.102Z,19.02
2023-10-31T03:00:39.234Z,17.65
2023-10-31T03:01:41.510Z,18.17
2023-10-31T03:02:43.851Z,16.73
2023-10-31T03:03:46.256Z,17.20
2023-10-31T03:04:48.432Z,18.98
2023-10-31T03:05:50.621Z,17.73
2023-10-31T03:06:52.748Z,19.75
2023-10-31T03:07:55.026Z,18.67
2023-10-31T03:08:57.275Z,19.98
2023-10-31T03:09:59.423Z,15.77
2023-10-31T03:11:01.640Z,17.60
2023-10-31T03:12:04.004Z,17.00
2023-10-31T03:13:06.188Z,19.88
2023-10-31T03:14:08.519Z,17.30
2023-10-31T03:15:10.819Z,17.77
2023-10-31T03:16:12.976Z,16.55
2023-10-31T03:17:15.178Z,18.90
2023-10-31T03:18:17.455Z,16.77
2023-10-31T03:19:19.612Z,17.08
2023-10-31T03:20:21.779Z,20.55
2023-10-31T03:21:23.935Z,19.38
2023-10-31T03:22:26.091Z,16.45
2023-10-31T03:23:28.251Z,17.30
2023-10-31T03:24:30.623Z,17.20
2023-10-31T03:25:32.827Z,19.13
2023-10-31T03:26:35.029Z,17.98
2023-10-31T03:27:37.358Z,16.42
2023-10-31T03:28:39.537Z,18.95
2023-10-31T03:29:41.674Z,20.88
2023-10-31T03:30:43.851Z,16.40
2023-10-31T03:31:46.065Z,19.17
2023-10-31T03:32:48.276Z,21.45
2023-10-31T03:33:50.875Z,17.00
2023-10-31T03:34:53.056Z,16.45
2023-10-31T03:35:55.170Z,18.88
2023-10-31T03:36:57.344Z,20.30
2023-10-31T03:37:59.562Z,16.95
2023-10-31T03:39:01.805Z,17.48
2023-10-31T03:40:04.396Z,17.38
2023-10-31T03:41:06.739Z,15.93
2023-10-31T03:42:08.929Z,17.67
2023-10-31T03:43:11.077Z,17.38
2023-10-31T03:44:13.334Z,19.08
2023-10-31T03:45:15.588Z,17.20
2023-10-31T03:46:17.920Z,15.80
2023-10-31T03:47:20.084Z,19.75
2023-10-31T03:48:22.460Z,18.50
2023-10-31T03:49:24.770Z,18.83
2023-10-31T03:50:27.877Z,18.70
2023-10-31T03:51:30.044Z,19.98
2023-10-31T03:52:32.334Z,16.25
2023-10-31T03:53:34.514Z,18.55
2023-10-31T03:54:36.721Z,19.10
2023-10-31T03:55:39.052Z,18.90
2023-10-31T03:56:42.074Z,16.30
2023-10-31T03:57:44.913Z,16.02
2023-10-31T03:58:47.416Z,18.83
2023-10-31T03:59:49.614Z,20.38
2023-10-31T04:00:51.720Z,19.83
2023-10-31T04:01:53.923Z,19.70
2023-10-31T04:02:56.482Z,19.45
2023-10-31T04:03:58.812Z,17.67
2023-10-31T04:05:01.094Z,17.67
2023-10-31T04:06:03.494Z,16.50
2023-10-31T04:07:05.655Z,20.33
2023-10-31T04:08:07.835Z,16.70
2023-10-31T04:09:11.108Z,18.02
2023-10-31T04:10:13.321Z,16.98
2023-10-31T04:11:15.534Z,15.18
2023-10-31T04:12:18.300Z,17.50
2023-10-31T04:13:20.500Z,13.05
2023-10-31T04:14:22.954Z,17.58
2023-10-31T04:15:25.117Z,15.93
2023-10-31T04:16:27.322Z,17.45
2023-10-31T04:17:29.631Z,16.88
2023-10-31T04:18:31.812Z,15.73
2023-10-31T04:19:33.939Z,15.55
2023-10-31T04:20:36.102Z,15.93
2023-10-31T04:21:38.225Z,15.77
2023-10-31T04:22:40.435Z,18.30
2023-10-31T04:23:42.622Z,16.85
2023-10-31T04:24:44.815Z,14.73
2023-10-31T04:25:47.597Z,17.45
2023-10-31T04:26:49.758Z,14.75
2023-10-31T04:27:51.884Z,16.80
2023-10-31T04:28:54.109Z,17.13
2023-10-31T04:29:56.301Z,14.55
2023-10-31T04:30:58.491Z,15.45
2023-10-31T04:32:00.735Z,14.80
2023-10-31T04:33:03.920Z,16.58
2023-10-31T04:34:06.216Z,11.48
2023-10-31T04:35:08.502Z,16.23
2023-10-31T04:36:11.310Z,14.68
2023-10-31T04:37:13.456Z,16.73
2023-10-31T04:38:15.593Z,13.10
2023-10-31T04:39:17.830Z,15.38
2023-10-31T04:40:19.973Z,15.02
2023-10-31T04:41:22.128Z,11.80
2023-10-31T04:42:24.323Z,15.02
2023-10-31T04:43:26.453Z,13.45
2023-10-31T04:44:28.834Z,15.65
2023-10-31T04:45:31.166Z,15.07
2023-10-31T04:46:33.472Z,14.93
2023-10-31T04:47:35.912Z,14.15
2023-10-31T04:48:38.420Z,16.13
2023-10-31T04:49:40.666Z,14.32
2023-10-31T04:50:42.866Z,17.52
2023-10-31T04:51:44.975Z,13.30
2023-10-31T04:52:47.143Z,11.95
2023-10-31T04:53:49.310Z,16.35
2023-10-31T04:54:51.555Z,13.88
2023-10-31T04:55:53.745Z,11.48
2023-10-31T04:56:56.484Z,16.30
2023-10-31T04:57:58.647Z,13.88
2023-10-31T04:59:00.864Z,12.50
2023-10-31T05:00:04.852Z,13.77
2023-10-31T05:01:13.778Z,13.90
2023-10-31T05:02:16.125Z,14.15
2023-10-31T05:03:19.230Z,11.98
2023-10-31T05:04:21.557Z,16.00
2023-10-31T05:05:23.819Z,13.85
2023-10-31T05:06:26.043Z,13.35
2023-10-31T05:07:28.238Z,13.18
2023-10-31T05:08:31.253Z,16.05
2023-10-31T05:09:33.395Z,14.05
2023-10-31T05:10:35.594Z,14.82
2023-10-31T05:11:37.776Z,13.23
2023-10-31T05:12:39.898Z,14.40
2023-10-31T05:13:42.101Z,16.52
2023-10-31T05:14:44.294Z,14.25
2023-10-31T05:15:46.580Z,12.95
2023-10-31T05:16:48.929Z,11.10
2023-10-31T05:17:51.133Z,13.98
2023-10-31T05:18:54.231Z,14.13
2023-10-31T05:19:56.706Z,12.50
2023-10-31T05:20:58.864Z,13.45
2023-10-31T05:22:01.018Z,17.20
2023-10-31T05:23:03.154Z,11.18
2023-10-31T05:24:05.873Z,12.02
2023-10-31T05:25:08.172Z,14.30
2023-10-31T05:26:10.390Z,13.70
2023-10-31T05:27:12.691Z,12.93
2023-10-31T05:28:14.884Z,12.00
2023-10-31T05:29:17.125Z,12.77
2023-10-31T05:30:19.309Z,13.75
2023-10-31T05:31:21.511Z,13.07
2023-10-31T05:32:23.721Z,15.18
2023-10-31T05:33:26.144Z,11.15
2023-10-31T05:34:28.320Z,12.63
2023-10-31T05:35:30.792Z,13.60
2023-10-31T05:36:33.091Z,14.93
2023-10-31T05:37:35.201Z,16.95
2023-10-31T05:38:37.368Z,15.48
2023-10-31T05:39:39.526Z,17.80
2023-10-31T05:40:41.774Z,14.90
2023-10-31T05:41:43.972Z,17.27
2023-10-31T05:42:46.173Z,12.13
2023-10-31T05:43:48.656Z,14.65
2023-10-31T05:44:50.934Z,11.40
2023-10-31T05:45:53.188Z,15.23
2023-10-31T05:46:55.380Z,13.98
2023-10-31T05:47:57.668Z,16.75
2023-10-31T05:48:59.872Z,15.18
2023-10-31T05:50:02.161Z,16.80
2023-10-31T05:51:04.711Z,14.65
2023-10-31T05:52:06.919Z,16.52
2023-10-31T05:53:09.090Z,15.10
2023-10-31T05:54:11.298Z,17.50
2023-10-31T05:55:13.459Z,14.27
2023-10-31T05:56:17.360Z,15.20
2023-10-31T05:57:19.640Z,14.05
2023-10-31T05:58:21.888Z,14.07
2023-10-31T05:59:24.115Z,12.60
2023-10-31T06:00:26.244Z,12.30
2023-10-31T06:01:28.432Z,14.70
2023-10-31T06:02:31.129Z,13.27
2023-10-31T06:03:33.651Z,10.88
2023-10-31T06:04:35.835Z,14.38
2023-10-31T06:05:38.099Z,16.55
2023-10-31T06:06:40.591Z,11.45
2023-10-31T06:07:42.924Z,12.70
2023-10-31T06:08:45.518Z,14.48
2023-10-31T06:09:47.736Z,11.45
2023-10-31T06:10:49.978Z,11.95
2023-10-31T06:11:52.118Z,15.65
2023-10-31T06:12:54.247Z,12.38
2023-10-31T06:13:56.437Z,12.23
2023-10-31T06:14:58.877Z,12.98
2023-10-31T06:16:02.183Z,12.60
2023-10-31T06:17:05.613Z,13.13
2023-10-31T06:18:07.933Z,11.60
2023-10-31T06:19:10.627Z,11.48
2023-10-31T06:20:12.871Z,13.45
2023-10-31T06:21:15.172Z,11.90
2023-10-31T06:22:17.397Z,16.15
2023-10-31T06:23:19.670Z,14.80
2023-10-31T06:24:22.296Z,17.20
2023-10-31T06:25:24.422Z,12.73
2023-10-31T06:26:26.802Z,10.20
2023-10-31T06:27:28.964Z,13.50
2023-10-31T06:28:31.116Z,16.33
2023-10-31T06:29:49.689Z,14.82
2023-10-31T06:30:55.433Z,17.52
2023-10-31T06:31:57.631Z,12.40
2023-10-31T06:33:01.398Z,13.50
2023-10-31T06:34:03.954Z,18.42
2023-10-31T06:35:06.760Z,12.77
2023-10-31T06:36:09.210Z,14.30
2023-10-31T06:37:11.575Z,16.50
2023-10-31T06:38:14.372Z,10.85
2023-10-31T06:39:16.596Z,13.68
2023-10-31T06:40:18.731Z,12.80
2023-10-31T06:41:20.943Z,13.70
2023-10-31T06:42:23.161Z,14.50
2023-10-31T06:43:25.529Z,12.07
2023-10-31T06:44:28.008Z,13.40
2023-10-31T06:45:30.183Z,13.80
2023-10-31T06:46:32.415Z,14.95
2023-10-31T06:47:34.612Z,13.07
2023-10-31T06:48:36.809Z,16.20
2023-10-31T06:49:39.381Z,13.25
2023-10-31T06:50:41.554Z,19.13
2023-10-31T06:51:43.736Z,16.60
2023-10-31T06:52:45.976Z,17.00
2023-10-31T06:53:48.090Z,14.75
2023-10-31T06:54:50.750Z,17.08
2023-10-31T06:55:52.938Z,14.27
2023-10-31T06:56:55.175Z,13.88
2023-10-31T06:57:57.392Z,15.32
2023-10-31T06:58:59.776Z,14.00
2023-10-31T07:00:02.083Z,15.57
2023-10-31T07:01:04.584Z,16.67
2023-10-31T07:02:07.364Z,14.90
2023-10-31T07:03:10.586Z,13.07
2023-10-31T07:04:12.892Z,16.23
2023-10-31T07:05:16.666Z,14.07
2023-10-31T07:06:18.837Z,16.77
2023-10-31T07:07:21.073Z,19.65
2023-10-31T07:08:24.102Z,15.48
2023-10-31T07:09:27.203Z,13.45
2023-10-31T07:10:29.686Z,19.40
2023-10-31T07:11:34.987Z,15.45
2023-10-31T07:12:37.153Z,15.82
2023-10-31T07:13:39.284Z,16.98
2023-10-31T07:14:41.528Z,15.35
2023-10-31T07:15:43.685Z,16.00
2023-10-31T07:16:45.948Z,16.75
2023-10-31T07:17:48.605Z,16.05
2023-10-31T07:18:50.726Z,16.20
2023-10-31T07:19:53.061Z,14.70
2023-10-31T07:20:55.220Z,19.13
2023-10-31T07:21:57.382Z,16.23
2023-10-31T07:22:59.543Z,15.93
2023-10-31T07:24:01.775Z,13.50
2023-10-31T07:25:04.778Z,16.90
2023-10-31T07:26:07.107Z,13.77
2023-10-31T07:27:09.856Z,13.88
2023-10-31T07:28:12.195Z,14.68
2023-10-31T07:29:14.468Z,12.85
2023-10-31T07:30:16.698Z,12.20
2023-10-31T07:31:19.172Z,11.63
2023-10-31T07:32:21.473Z,15.25
2023-10-31T07:33:23.715Z,11.60
2023-10-31T07:34:26.036Z,12.40
2023-10-31T07:35:28.279Z,10.55
2023-10-31T07:36:30.468Z,12.77
2023-10-31T07:37:34.426Z,12.60
2023-10-31T07:38:38.635Z,14.13
2023-10-31T07:39:40.895Z,12.45
2023-10-31T07:40:43.111Z,11.07
2023-10-31T07:41:45.564Z,11.98
2023-10-31T07:42:47.717Z,11.00
2023-10-31T07:43:50.017Z,12.65
2023-10-31T07:44:52.329Z,11.27
2023-10-31T07:45:54.525Z,11.48
2023-10-31T07:46:56.981Z,12.95
2023-10-31T07:47:59.214Z,13.63
2023-10-31T07:49:01.435Z,11.02
2023-10-31T07:50:04.037Z,11.30
2023-10-31T07:51:06.231Z,10.57
2023-10-31T07:52:08.471Z,9.63
2023-10-31T07:53:10.708Z,13.60
2023-10-31T07:54:13.338Z,10.02
2023-10-31T07:55:15.782Z,10.23
2023-10-31T07:56:18.982Z,12.25
2023-10-31T07:57:21.200Z,8.35
2023-10-31T07:58:23.363Z,8.15
2023-10-31T07:59:25.601Z,11.68
2023-10-31T08:00:27.750Z,12.07
2023-10-31T08:01:29.950Z,13.23
2023-10-31T08:02:32.271Z,10.00
2023-10-31T08:03:34.580Z,9.73
2023-10-31T08:04:36.795Z,12.27
2023-10-31T08:05:38.911Z,8.90
2023-10-31T08:06:41.086Z,8.32
2023-10-31T08:07:43.251Z,10.20
2023-10-31T08:08:45.540Z,9.98
2023-10-31T08:09:47.694Z,11.85
2023-10-31T08:10:49.862Z,9.40
2023-10-31T08:11:52.024Z,7.57
2023-10-31T08:12:54.262Z,10.63
2023-10-31T08:13:56.716Z,6.93
2023-10-31T08:14:59.807Z,10.23
2023-10-31T08:16:02.023Z,8.20
2023-10-31T08:17:04.453Z,8.75
2023-10-31T08:18:06.882Z,6.47
2023-10-31T08:19:09.095Z,10.88
2023-10-31T08:20:12.277Z,9.25
2023-10-31T08:21:14.559Z,9.57
2023-10-31T08:22:17.661Z,8.00
2023-10-31T08:23:19.875Z,10.30
2023-10-31T08:24:22.044Z,9.20
2023-10-31T08:25:24.308Z,7.60
2023-10-31T08:26:26.558Z,10.43
2023-10-31T08:27:28.706Z,10.70
2023-10-31T08:28:31.894Z,8.82
2023-10-31T08:29:34.096Z,9.55
2023-10-31T08:30:36.703Z,10.05
2023-10-31T08:31:39.381Z,7.43
2023-10-31T08:32:41.553Z,8.93
2023-10-31T08:33:43.879Z,9.20
2023-10-31T08:34:46.088Z,7.68
2023-10-31T08:35:49.352Z,7.25
2023-10-31T08:36:53.753Z,6.28
2023-10-31T08:37:55.954Z,8.55
2023-10-31T08:38:58.517Z,9.70
2023-10-31T08:40:01.879Z,8.60
2023-10-31T08:41:04.486Z,11.48
2023-10-31T08:42:07.110Z,9.85
2023-10-31T08:43:09.277Z,10.45
2023-10-31T08:44:11.433Z,6.80
2023-10-31T08:45:13.630Z,8.52
2023-10-31T08:46:15.887Z,6.72
2023-10-31T08:47:19.695Z,8.43
2023-10-31T08:48:22.094Z,7.05
2023-10-31T08:49:24.315Z,6.82
2023-10-31T08:50:26.648Z,10.18
2023-10-31T08:51:28.855Z,6.07
2023-10-31T08:52:31.110Z,10.40
2023-10-31T08:53:33.283Z,8.30
2023-10-31T08:54:35.468Z,9.52
2023-10-31T08:55:37.693Z,10.25
2023-10-31T08:56:39.805Z,7.18
2023-10-31T08:57:41.987Z,8.07
2023-10-31T08:58:44.167Z,7.05
2023-10-31T08:59:46.325Z,7.50
2023-10-31T09:00:48.527Z,9.02
2023-10-31T09:01:50.698Z,8.05
2023-10-31T09:02:53.066Z,8.05
2023-10-31T09:03:55.344Z,8.48
2023-10-31T09:04:58.227Z,8.63
2023-10-31T09:06:00.386Z,10.23
2023-10-31T09:07:02.543Z,6.68
2023-10-31T09:08:04.963Z,5.82
2023-10-31T09:09:07.236Z,8.75
2023-10-31T09:10:09.653Z,5.80
2023-10-31T09:11:11.868Z,8.52
2023-10-31T09:12:14.026Z,4.85
2023-10-31T09:13:16.199Z,8.65
2023-10-31T09:14:18.371Z,7.50
2023-10-31T09:15:22.401Z,5.97
2023-10-31T09:16:24.637Z,5.18
2023-10-31T09:17:26.986Z,8.93
2023-10-31T09:18:29.155Z,6.28
2023-10-31T09:19:31.357Z,4.68
2023-10-31T09:20:33.544Z,6.07
2023-10-31T09:21:35.760Z,6.68
2023-10-31T09:22:38.805Z,6.30
2023-10-31T09:23:40.961Z,7.82
2023-10-31T09:24:46.667Z,9.05
2023-10-31T09:25:49.161Z,5.97
2023-10-31T09:26:51.372Z,10.68
2023-10-31T09:27:53.550Z,6.47
2023-10-31T09:28:56.427Z,6.55
2023-10-31T09:29:58.579Z,6.65
2023-10-31T09:31:02.177Z,6.55
2023-10-31T09:32:06.620Z,6.25
2023-10-31T09:33:08.926Z,9.57
2023-10-31T09:34:11.209Z,5.97
2023-10-31T09:35:13.412Z,7.00
2023-10-31T09:36:15.871Z,9.02
2023-10-31T09:37:18.157Z,7.88
2023-10-31T09:38:20.331Z,4.88
2023-10-31T09:39:24.126Z,8.23
2023-10-31T09:40:26.584Z,5.80
2023-10-31T09:41:29.123Z,6.80
2023-10-31T09:42:31.350Z,7.00
2023-10-31T09:43:33.696Z,7.32
2023-10-31T09:44:36.241Z,6.20
2023-10-31T09:45:38.797Z,6.10
2023-10-31T09:46:41.485Z,7.07
2023-10-31T09:47:44.260Z,7.15
2023-10-31T09:48:46.742Z,9.23
2023-10-31T09:49:48.938Z,7.75
2023-10-31T09:50:51.458Z,6.93
2023-10-31T09:51:53.891Z,12.80
2023-10-31T09:52:57.522Z,6.13
2023-10-31T09:54:00.991Z,7.40
2023-10-31T09:55:03.861Z,6.28
2023-10-31T09:56:06.435Z,9.68
2023-10-31T09:57:08.650Z,6.38
2023-10-31T09:58:11.036Z,8.25
2023-10-31T09:59:15.636Z,8.73
2023-10-31T10:00:18.110Z,7.63
2023-10-31T10:01:20.251Z,7.38
2023-10-31T10:02:22.541Z,7.30
2023-10-31T10:03:25.041Z,6.43
2023-10-31T10:04:27.750Z,6.65
2023-10-31T10:05:32.436Z,6.80
2023-10-31T10:06:34.660Z,5.43
2023-10-31T10:07:36.957Z,6.22
2023-10-31T10:08:39.953Z,6.88
2023-10-31T10:09:42.910Z,6.68
2023-10-31T10:10:45.212Z,6.63
2023-10-31T10:11:47.418Z,5.57
2023-10-31T10:12:49.549Z,8.02
2023-10-31T10:13:54.849Z,8.15
2023-10-31T10:14:58.398Z,5.32
2023-10-31T10:16:01.126Z,9.13
2023-10-31T10:17:04.151Z,8.35
2023-10-31T10:18:06.517Z,6.68
2023-10-31T10:19:23.017Z,8.43
2023-10-31T10:20:25.347Z,8.45
2023-10-31T10:21:27.592Z,7.78
2023-10-31T10:22:29.992Z,8.20
2023-10-31T10:23:34.801Z,5.25
2023-10-31T10:24:41.701Z,8.93
2023-10-31T10:25:44.023Z,7.60
2023-10-31T10:26:46.669Z,8.75
2023-10-31T10:27:48.888Z,7.25
2023-10-31T10:28:52.165Z,6.90
2023-10-31T10:29:55.449Z,6.78
2023-10-31T10:30:57.645Z,6.03
2023-10-31T10:31:59.879Z,6.63
2023-10-31T10:33:02.077Z,7.35
2023-10-31T10:34:05.690Z,5.45
2023-10-31T10:35:09.370Z,5.30
2023-10-31T10:36:11.950Z,6.70
2023-10-31T10:37:14.150Z,4.10
2023-10-31T10:38:17.917Z,9.48
2023-10-31T10:39:24.169Z,4.50
2023-10-31T10:40:27.198Z,5.47
2023-10-31T10:41:30.086Z,5.93
2023-10-31T10:42:36.725Z,5.07
2023-10-31T10:43:40.293Z,5.22
2023-10-31T10:44:45.244Z,6.05
2023-10-31T10:45:49.433Z,7.65
2023-10-31T10:46:55.783Z,5.75
2023-10-31T10:47:59.237Z,5.10
2023-10-31T10:49:05.237Z,6.15
2023-10-31T10:50:09.285Z,6.63
2023-10-31T10:51:23.490Z,9.82
2023-10-31T10:52:47.059Z,7.93
2023-10-31T10:55:17.825Z,7.28
2023-10-31T10:56:36.105Z,4.57
2023-10-31T10:57:55.675Z,6.63
2023-10-31T10:59:13.268Z,5.25
2023-10-31T11:00:16.342Z,7.22
2023-10-31T11:01:19.372Z,5.13
2023-10-31T11:02:21.930Z,3.97
2023-10-31T11:03:24.945Z,7.47
2023-10-31T11:04:27.753Z,6.20
2023-10-31T11:05:30.210Z,4.40
2023-10-31T11:06:33.065Z,4.53
2023-10-31T11:07:36.377Z,5.70
2023-10-31T11:08:39.124Z,6.38
2023-10-31T11:09:44.786Z,8.43
2023-10-31T11:10:47.521Z,5.13
2023-10-31T11:11:50.418Z,8.77
2023-10-31T11:12:52.957Z,4.75
2023-10-31T11:13:57.974Z,4.32
2023-10-31T11:15:01.483Z,5.75
2023-10-31T11:16:10.580Z,4.05
2023-10-31T11:17:19.741Z,6.00
2023-10-31T11:18:21.981Z,6.30
2023-10-31T11:19:25.705Z,5.05
2023-10-31T11:20:30.261Z,5.63
2023-10-31T11:21:32.636Z,6.22
2023-10-31T11:22:47.674Z,6.90
2023-10-31T11:23:59.005Z,6.97
2023-10-31T11:25:01.178Z,7.53
2023-10-31T11:26:04.118Z,7.03
2023-10-31T11:27:07.794Z,5.45
2023-10-31T11:28:14.024Z,5.85
2023-10-31T11:29:18.622Z,5.30
2023-10-31T11:30:22.124Z,5.90
2023-10-31T11:31:26.447Z,5.93
2023-10-31T11:32:28.674Z,6.25
2023-10-31T11:33:31.110Z,9.32
2023-10-31T11:34:34.040Z,6.28
2023-10-31T11:35:37.267Z,7.45
2023-10-31T11:36:39.437Z,5.80
2023-10-31T11:37:41.617Z,5.10
2023-10-31T11:38:44.732Z,6.55
2023-10-31T11:40:14.477Z,6.50
2023-10-31T11:42:20.456Z,7.15
2023-10-31T11:43:23.168Z,6.43
2023-10-31T11:44:28.697Z,6.15
2023-10-31T11:45:35.082Z,8.25
2023-10-31T11:46:37.403Z,8.98
2023-10-31T11:47:52.122Z,10.25
2023-10-31T11:48:57.147Z,6.10
2023-10-31T11:49:59.455Z,5.68
2023-10-31T11:51:01.796Z,8.52
2023-10-31T11:52:04.094Z,8.43
2023-10-31T11:53:19.373Z,8.93
2023-10-31T11:54:21.601Z,9.10
2023-10-31T11:55:23.766Z,5.57
2023-10-31T11:56:26.856Z,10.40
2023-10-31T11:57:29.892Z,7.03
2023-10-31T11:58:32.513Z,8.05
2023-10-31T11:59:41.130Z,9.43
2023-10-31T12:00:43.693Z,9.07
2023-10-31T12:01:48.852Z,10.43
2023-10-31T12:03:03.716Z,8.45
2023-10-31T12:04:08.570Z,9.40
2023-10-31T12:05:12.308Z,10.02
2023-10-31T12:06:15.464Z,7.57
2023-10-31T12:07:19.920Z,8.32
2023-10-31T12:08:32.654Z,8.20
2023-10-31T12:09:46.841Z,8.68
2023-10-31T12:10:49.030Z,13.82
2023-10-31T12:11:51.204Z,12.75
2023-10-31T12:12:54.140Z,10.88
2023-10-31T12:14:01.716Z,9.90
2023-10-31T12:15:10.695Z,9.10
2023-10-31T12:16:14.076Z,9.85
2023-10-31T12:17:16.431Z,7.72
2023-10-31T12:18:19.202Z,11.43
2023-10-31T12:19:22.280Z,8.05
2023-10-31T12:20:26.164Z,8.93
2023-10-31T12:21:41.934Z,8.63
2023-10-31T12:22:44.929Z,8.40
2023-10-31T12:23:47.387Z,10.75
2023-10-31T12:24:49.527Z,8.13
2023-10-31T12:25:52.646Z,12.25
2023-10-31T12:26:54.870Z,11.90
2023-10-31T12:27:57.075Z,8.18
2023-10-31T12:29:21.668Z,12.50
2023-10-31T12:30:23.944Z,10.57
2023-10-31T12:31:26.141Z,9.60
2023-10-31T12:32:28.350Z,8.70
2023-10-31T12:33:30.575Z,10.43
2023-10-31T12:34:35.778Z,12.95
2023-10-31T12:35:38.065Z,14.43
2023-10-31T12:36:40.816Z,13.25
2023-10-31T12:37:49.130Z,9.95
2023-10-31T12:38:51.387Z,13.02
2023-10-31T12:39:53.645Z,12.60
2023-10-31T12:40:56.508Z,11.25
2023-10-31T12:41:59.454Z,9.27
2023-10-31T12:43:02.783Z,9.68
2023-10-31T12:44:06.083Z,8.57
2023-10-31T12:45:09.329Z,5.88
2023-10-31T12:46:30.617Z,8.82
2023-10-31T12:47:35.720Z,9.77
2023-10-31T12:48:39.050Z,7.57
2023-10-31T12:49:41.306Z,6.78
2023-10-31T12:50:43.840Z,8.13
2023-10-31T12:52:02.107Z,9.02
2023-10-31T12:53:04.852Z,8.85
2023-10-31T12:54:07.125Z,9.25
2023-10-31T12:55:18.107Z,11.02
2023-10-31T12:56:40.880Z,8.30
2023-10-31T12:57:43.347Z,6.30
2023-10-31T12:58:45.601Z,9.05
2023-10-31T12:59:47.754Z,7.85
2023-10-31T13:00:49.914Z,9.40
2023-10-31T13:01:52.130Z,9.13
2023-10-31T13:03:01.438Z,9.82
2023-10-31T13:04:05.142Z,12.77
2023-10-31T13:05:14.792Z,10.20
2023-10-31T13:06:17.230Z,7.90
2023-10-31T13:07:27.679Z,9.25
2023-10-31T13:08:30.024Z,8.25
2023-10-31T13:09:33.288Z,9.90
2023-10-31T13:10:35.651Z,16.65
2023-10-31T13:11:37.824Z,11.73
2023-10-31T13:12:39.987Z,11.50
2023-10-31T13:13:42.153Z,10.30
2023-10-31T13:14:44.316Z,12.48
2023-10-31T13:15:46.565Z,11.63
2023-10-31T13:16:48.750Z,12.00
2023-10-31T13:17:51.814Z,10.57
2023-10-31T13:18:56.798Z,10.63
2023-10-31T13:19:59.100Z,11.68
2023-10-31T13:21:01.297Z,10.40
2023-10-31T13:22:03.486Z,10.98
2023-10-31T13:23:05.633Z,10.40
2023-10-31T13:24:09.416Z,9.07
2023-10-31T13:25:14.028Z,10.75
2023-10-31T13:27:18.342Z,9.45
2023-10-31T13:28:20.482Z,10.98
2023-10-31T13:29:23.876Z,10.95
2023-10-31T13:30:26.788Z,9.27
2023-10-31T13:31:29.080Z,8.50
2023-10-31T13:32:31.626Z,9.82
2023-10-31T13:33:34.371Z,10.00
2023-10-31T13:34:36.901Z,10.02
2023-10-31T13:35:39.124Z,8.90
2023-10-31T13:36:41.370Z,8.80
2023-10-31T13:37:43.610Z,7.53
2023-10-31T13:38:45.727Z,12.68
2023-10-31T13:39:48.135Z,9.88
2023-10-31T13:40:50.350Z,9.48
2023-10-31T13:41:52.626Z,7.57
2023-10-31T13:42:54.758Z,6.70
2023-10-31T13:43:56.891Z,9.00
2023-10-31T13:44:59.096Z,11.90